Time;durP1;ratioP1;P1;durP2;ratioP2;P2;SDS_P1;SDS_P2;PMS_P1;PMS_P2;Temp;Humidity;BMP_temperature;BMP_pressure;BME280_temperature;BME280_humidity;BME280_pressure;Samples;Min_cycle;Max_cycle;Signal;HPM_P1;HPM_P2
2023/07/29 00:00:22;;;;;;;3.27;1.90;;;;;;;17.70;100.00;99945.53;679473;29;1158;-59
2023/07/29 00:00:43;;;;;;;3.42;1.90;;;;;;;17.66;100.00;99943.94;678821;29;1291;-60
2023/07/29 00:01:03;;;;;;;3.42;2.00;;;;;;;17.65;100.00;99944.03;678776;29;1411;-59
2023/07/29 00:01:23;;;;;;;3.10;1.87;;;;;;;17.65;100.00;99944.03;679248;28;4309;-59
2023/07/29 00:01:47;;;;;;;3.42;1.70;;;;;;;17.63;100.00;99944.09;679330;29;1376;-60
2023/07/29 00:02:07;;;;;;;3.85;1.80;;;;;;;17.63;100.00;99945.88;676297;29;1204;-60
2023/07/29 00:02:30;;;;;;;4.30;1.90;;;;;;;17.62;100.00;99952.94;678412;29;1375;-59
2023/07/29 00:02:51;;;;;;;2.83;1.95;;;;;;;17.61;100.00;99940.69;676416;29;1431;-60
2023/07/29 00:03:12;;;;;;;3.20;1.83;;;;;;;17.61;100.00;99947.72;679027;29;1964;-60
2023/07/29 00:03:32;;;;;;;3.60;1.80;;;;;;;17.58;100.00;99948.72;678303;29;878;-60
2023/07/29 00:03:55;;;;;;;3.30;1.80;;;;;;;17.57;100.00;99949.66;676721;29;2610;-59
2023/07/29 00:04:16;;;;;;;3.60;2.03;;;;;;;17.56;100.00;99947.94;678751;28;4463;-60
2023/07/29 00:04:37;;;;;;;3.30;1.80;;;;;;;17.55;100.00;99943.59;679427;29;1288;-60
2023/07/29 00:04:57;;;;;;;3.40;1.88;;;;;;;17.55;100.00;99950.66;680011;28;1275;-60
2023/07/29 00:05:17;;;;;;;3.47;2.00;;;;;;;17.54;100.00;99939.22;682065;29;1584;-60
2023/07/29 00:05:38;;;;;;;3.10;2.00;;;;;;;17.55;100.00;99951.50;679361;29;1406;-60
2023/07/29 00:05:59;;;;;;;4.70;2.10;;;;;;;17.54;100.00;99941.84;677365;29;1455;-60
2023/07/29 00:06:19;;;;;;;4.27;2.07;;;;;;;17.53;100.00;99948.09;679397;29;1391;-60
2023/07/29 00:06:39;;;;;;;3.10;1.93;;;;;;;17.52;100.00;99946.38;677110;29;1486;-60
2023/07/29 00:07:00;;;;;;;3.85;2.10;;;;;;;17.51;100.00;99945.53;675098;29;1335;-60
2023/07/29 00:07:22;;;;;;;4.53;2.10;;;;;;;17.50;100.00;99942.91;676600;29;4627;-58
2023/07/29 00:07:43;;;;;;;3.05;2.10;;;;;;;17.51;100.00;99948.16;678101;29;1533;-60
2023/07/29 00:08:03;;;;;;;3.50;2.33;;;;;;;17.51;100.00;99945.53;677093;29;1708;-59
2023/07/29 00:08:24;;;;;;;4.27;2.47;;;;;;;17.49;100.00;99942.06;679433;29;1644;-60
2023/07/29 00:08:45;;;;;;;4.18;2.20;;;;;;;17.51;100.00;99942.00;679078;29;1355;-59
2023/07/29 00:09:05;;;;;;;5.00;2.20;;;;;;;17.52;100.00;99946.38;677305;29;1247;-59
2023/07/29 00:09:25;;;;;;;3.65;1.95;;;;;;;17.50;100.00;99943.81;681365;29;1394;-60
2023/07/29 00:09:46;;;;;;;3.63;2.00;;;;;;;17.49;100.00;99946.50;681168;29;1483;-60
2023/07/29 00:10:07;;;;;;;2.85;1.92;;;;;;;17.49;100.00;99941.22;678726;29;1275;-58
2023/07/29 00:10:27;;;;;;;3.55;1.90;;;;;;;17.47;100.00;99940.44;681275;28;4444;-59
2023/07/29 00:10:48;;;;;;;4.77;1.93;;;;;;;17.48;100.00;99945.63;681042;28;1441;-60
2023/07/29 00:11:08;;;;;;;4.33;2.00;;;;;;;17.49;100.00;99946.50;680638;28;1264;-60
2023/07/29 00:11:28;;;;;;;3.30;1.92;;;;;;;17.49;100.00;99947.34;680771;28;1200;-59
2023/07/29 00:11:49;;;;;;;3.80;2.00;;;;;;;17.53;100.00;99950.75;680992;29;1319;-60
2023/07/29 00:12:09;;;;;;;3.47;2.00;;;;;;;17.52;100.00;99936.66;679809;28;1373;-59
2023/07/29 00:12:32;;;;;;;3.33;2.10;;;;;;;17.52;100.00;99936.66;681049;29;1499;-60
2023/07/29 00:12:52;;;;;;;3.72;2.00;;;;;;;17.52;100.00;99938.44;679894;29;1413;-59
2023/07/29 00:13:13;;;;;;;3.23;1.90;;;;;;;17.52;100.00;99943.72;680740;28;4816;-59
2023/07/29 00:13:33;;;;;;;3.40;1.85;;;;;;;17.50;100.00;99935.88;679642;29;1299;-59
2023/07/29 00:13:54;;;;;;;3.77;1.90;;;;;;;17.50;100.00;99933.22;677403;29;1425;-60
2023/07/29 00:14:14;;;;;;;3.72;1.90;;;;;;;17.50;100.00;99929.72;678768;29;1351;-58
2023/07/29 00:14:35;;;;;;;3.10;1.90;;;;;;;17.50;100.00;99935.00;678115;29;1319;-60
2023/07/29 00:14:55;;;;;;;2.83;1.83;;;;;;;17.48;100.00;99935.06;676977;29;1233;-59
2023/07/29 00:15:15;;;;;;;3.37;1.83;;;;;;;17.49;100.00;99941.22;679075;29;1307;-60
2023/07/29 00:15:36;;;;;;;4.72;2.00;;;;;;;17.49;100.00;99941.22;678722;29;1335;-59
2023/07/29 00:15:56;;;;;;;3.50;1.73;;;;;;;17.48;100.00;99937.72;678206;29;1319;-59
2023/07/29 00:16:17;;;;;;;3.57;1.83;;;;;;;17.47;100.00;99940.44;677878;28;4466;-59
2023/07/29 00:16:39;;;;;;;3.03;1.88;;;;;;;17.47;100.00;99941.31;678533;29;1187;-59
2023/07/29 00:17:00;;;;;;;2.95;1.80;;;;;;;17.46;100.00;99929.00;677744;29;1303;-60
2023/07/29 00:17:20;;;;;;;3.13;1.80;;;;;;;17.45;100.00;99935.22;679112;29;1327;-59
2023/07/29 00:17:41;;;;;;;3.47;1.92;;;;;;;17.46;100.00;99930.78;679319;29;1422;-60
2023/07/29 00:18:01;;;;;;;3.60;2.03;;;;;;;17.47;100.00;99937.78;677897;29;1453;-59
2023/07/29 00:18:23;;;;;;;3.37;2.10;;;;;;;17.47;100.00;99937.78;679257;29;1192;-59
2023/07/29 00:18:44;;;;;;;4.18;2.10;;;;;;;17.47;100.00;99936.03;677944;29;1466;-60
2023/07/29 00:19:04;;;;;;;3.55;1.95;;;;;;;17.45;100.00;99929.94;677509;29;1675;-60
2023/07/29 00:19:24;;;;;;;3.77;2.10;;;;;;;17.45;100.00;99935.22;677901;29;4433;-60
2023/07/29 00:19:45;;;;;;;2.80;1.80;;;;;;;17.45;100.00;99932.56;678915;29;3523;-60
2023/07/29 00:20:07;;;;;;;3.05;1.90;;;;;;;17.44;100.00;99938.78;677776;29;1747;-60
2023/07/29 00:20:27;;;;;;;3.78;1.98;;;;;;;17.45;100.00;99935.22;678643;29;1489;-58
2023/07/29 00:20:47;;;;;;;3.30;2.10;;;;;;;17.45;100.00;99929.09;678429;29;1268;-60
2023/07/29 00:21:08;;;;;;;3.17;1.95;;;;;;;17.45;100.00;99926.44;678405;29;1714;-60
2023/07/29 00:21:28;;;;;;;3.93;1.97;;;;;;;17.45;100.00;99926.44;678711;29;1294;-60
2023/07/29 00:21:49;;;;;;;3.90;2.10;;;;;;;17.45;100.00;99926.44;678637;29;1406;-60
2023/07/29 00:22:09;;;;;;;3.60;2.10;;;;;;;17.46;100.00;99933.41;677604;28;4903;-60
2023/07/29 00:22:29;;;;;;;3.70;2.10;;;;;;;17.49;100.00;99931.50;677904;29;1320;-60
2023/07/29 00:22:52;;;;;;;2.93;2.00;;;;;;;17.51;100.00;99928.78;680656;28;1227;-60
2023/07/29 00:23:13;;;;;;;2.80;1.90;;;;;;;17.51;100.00;99923.50;680430;28;1976;-60
2023/07/29 00:23:33;;;;;;;4.30;1.80;;;;;;;17.51;100.00;99928.78;681477;29;1374;-58
2023/07/29 00:23:54;;;;;;;5.07;1.90;;;;;;;17.51;100.00;99920.88;678997;28;1767;-60
2023/07/29 00:24:17;;;;;;;4.47;2.03;;;;;;;17.51;100.00;99918.22;682204;29;1335;-60
2023/07/29 00:24:37;;;;;;;4.50;2.10;;;;;;;17.48;100.00;99923.66;679986;29;1490;-59
2023/07/29 00:24:59;;;;;;;3.50;2.00;;;;;;;17.47;100.00;99921.94;678923;28;1402;-58
2023/07/29 00:25:19;;;;;;;2.80;1.95;;;;;;;17.49;100.00;99920.09;681524;29;4410;-60
2023/07/29 00:25:40;;;;;;;3.72;1.95;;;;;;;17.47;100.00;99919.28;680964;29;1549;-60
2023/07/29 00:26:00;;;;;;;3.37;1.80;;;;;;;17.46;100.00;99922.84;677137;29;1430;-60
2023/07/29 00:26:21;;;;;;;3.70;1.95;;;;;;;17.49;100.00;99918.28;678385;29;1477;-60
2023/07/29 00:26:42;;;;;;;3.90;2.00;;;;;;;17.46;100.00;99918.44;677604;29;1319;-60
2023/07/29 00:27:02;;;;;;;3.30;1.90;;;;;;;17.46;100.00;99918.44;677201;29;1837;-60
2023/07/29 00:27:23;;;;;;;3.40;2.00;;;;;;;17.45;100.00;99918.50;678760;29;1549;-60
2023/07/29 00:27:43;;;;;;;2.67;1.80;;;;;;;17.44;100.00;99922.91;678441;29;1303;-60
2023/07/29 00:28:04;;;;;;;2.80;1.83;;;;;;;17.45;100.00;99918.50;674030;29;2523;-60
2023/07/29 00:28:24;;;;;;;2.72;1.88;;;;;;;17.43;100.00;99917.72;675130;29;4551;-60
2023/07/29 00:28:44;;;;;;;3.40;2.00;;;;;;;17.43;100.00;99915.06;675595;29;1275;-60
2023/07/29 00:29:05;;;;;;;3.17;2.00;;;;;;;17.43;100.00;99920.34;671004;29;1718;-60
2023/07/29 00:29:25;;;;;;;3.42;2.03;;;;;;;17.44;100.00;99915.00;673003;29;1372;-59
2023/07/29 00:29:45;;;;;;;4.83;1.90;;;;;;;17.48;100.00;99916.56;672434;29;1364;-60
2023/07/29 00:30:08;;;;;;;3.50;1.90;;;;;;;17.48;100.00;99913.09;672559;29;1724;-60
2023/07/29 00:30:30;;;;;;;3.80;2.13;;;;;;;17.46;100.00;99912.28;675800;29;1367;-60
2023/07/29 00:30:50;;;;;;;4.15;1.95;;;;;;;17.45;100.00;99913.22;676104;29;1351;-60
2023/07/29 00:31:11;;;;;;;3.73;1.90;;;;;;;17.44;100.00;99914.16;676545;29;4355;-60
2023/07/29 00:31:31;;;;;;;4.25;1.92;;;;;;;17.43;100.00;99921.22;680123;29;1358;-58
2023/07/29 00:31:52;;;;;;;4.30;2.20;;;;;;;17.43;100.00;99920.34;677929;29;1888;-60
2023/07/29 00:32:12;;;;;;;3.25;1.95;;;;;;;17.42;100.00;99919.50;678854;29;1412;-60
2023/07/29 00:32:35;;;;;;;3.28;2.00;;;;;;;17.43;100.00;99923.00;676926;29;1351;-60
2023/07/29 00:32:55;;;;;;;3.75;1.85;;;;;;;17.43;100.00;99915.06;674850;29;1742;-60
2023/07/29 00:33:15;;;;;;;4.00;2.10;;;;;;;17.41;100.00;99914.28;673687;29;1371;-60
2023/07/29 00:33:36;;;;;;;3.30;1.95;;;;;;;17.40;100.00;99916.06;674649;29;1146;-60
2023/07/29 00:33:58;;;;;;;3.30;2.03;;;;;;;17.41;100.00;99922.22;675987;29;1702;-60
2023/07/29 00:34:19;;;;;;;5.07;2.20;;;;;;;17.39;100.00;99914.38;678723;29;4323;-60
2023/07/29 00:34:39;;;;;;;4.78;2.15;;;;;;;17.40;100.00;99909.94;677341;29;2000;-59
2023/07/29 00:35:00;;;;;;;4.75;2.00;;;;;;;17.40;100.00;99910.78;676983;29;1411;-60
2023/07/29 00:35:21;;;;;;;3.28;2.00;;;;;;;17.40;100.00;99916.06;676632;29;1508;-60
2023/07/29 00:35:41;;;;;;;3.70;2.13;;;;;;;17.41;100.00;99915.13;678523;29;1315;-60
2023/07/29 00:36:02;;;;;;;3.85;2.22;;;;;;;17.41;100.00;99911.66;676563;29;1762;-60
2023/07/29 00:36:23;;;;;;;3.10;2.00;;;;;;;17.42;100.00;99913.34;677049;29;1209;-60
2023/07/29 00:36:43;;;;;;;4.07;2.10;;;;;;;17.41;100.00;99912.50;679723;29;1320;-60
2023/07/29 00:37:06;;;;;;;4.97;2.20;;;;;;;17.42;100.00;99913.34;679044;29;2555;-58
2023/07/29 00:37:28;;;;;;;3.63;2.00;;;;;;;17.39;100.00;99908.22;677978;29;4349;-60
2023/07/29 00:37:49;;;;;;;3.63;2.08;;;;;;;17.40;100.00;99912.56;681093;29;1251;-60
2023/07/29 00:38:09;;;;;;;3.40;2.03;;;;;;;17.38;100.00;99911.78;680396;28;1209;-60
2023/07/29 00:38:29;;;;;;;4.17;2.03;;;;;;;17.40;100.00;99918.69;680385;29;1476;-59
2023/07/29 00:38:50;;;;;;;4.18;2.13;;;;;;;17.41;100.00;99906.38;681102;29;1415;-60
2023/07/29 00:39:11;;;;;;;3.10;1.90;;;;;;;17.41;100.00;99914.28;680486;28;1128;-59
2023/07/29 00:39:32;;;;;;;3.20;2.00;;;;;;;17.41;100.00;99906.38;680669;29;1288;-59
2023/07/29 00:39:52;;;;;;;3.50;1.95;;;;;;;17.40;100.00;99917.84;679377;28;1805;-59
2023/07/29 00:40:19;;;;;;;7.50;2.58;;;;;;;17.38;100.00;99911.78;678722;28;5374;-60
2023/07/29 00:40:39;;;;;;;4.95;2.20;;;;;;;17.38;100.00;99914.41;677488;29;1378;-60
2023/07/29 00:41:02;;;;;;;3.53;1.98;;;;;;;17.37;100.00;99908.28;677008;29;2007;-60
2023/07/29 00:41:22;;;;;;;3.58;2.10;;;;;;;17.38;100.00;99911.78;678482;29;1430;-59
2023/07/29 00:41:42;;;;;;;4.63;2.00;;;;;;;17.37;100.00;99916.19;673029;29;1280;-60
2023/07/29 00:42:04;;;;;;;3.20;2.00;;;;;;;17.36;100.00;99910.06;673865;29;1621;-59
2023/07/29 00:42:25;;;;;;;3.88;2.03;;;;;;;17.37;100.00;99913.56;674621;29;5577;-60
2023/07/29 00:42:45;;;;;;;3.85;2.10;;;;;;;17.36;100.00;99910.06;674643;29;1333;-60
2023/07/29 00:43:06;;;;;;;3.40;2.20;;;;;;;17.42;100.00;99915.97;673376;29;1911;-60
2023/07/29 00:43:26;;;;;;;3.20;2.10;;;;;;;17.45;100.00;99911.44;676353;29;4372;-59
2023/07/29 00:43:46;;;;;;;3.60;2.10;;;;;;;17.43;100.00;99907.13;679038;29;1398;-60
2023/07/29 00:44:07;;;;;;;4.20;2.17;;;;;;;17.43;100.00;99909.78;678090;29;1578;-60
2023/07/29 00:44:27;;;;;;;4.05;2.25;;;;;;;17.41;100.00;99907.22;675542;29;1243;-60
2023/07/29 00:44:47;;;;;;;4.00;2.07;;;;;;;17.42;100.00;99908.06;676809;29;1235;-59
2023/07/29 00:45:09;;;;;;;3.60;1.90;;;;;;;17.40;100.00;99909.94;674936;29;1227;-60
2023/07/29 00:45:31;;;;;;;4.20;2.17;;;;;;;17.39;100.00;99905.56;677297;29;1114;-59
2023/07/29 00:45:52;;;;;;;4.75;2.15;;;;;;;17.36;100.00;99907.44;673607;29;1668;-60
2023/07/29 00:46:12;;;;;;;2.90;1.98;;;;;;;17.36;100.00;99910.06;671257;29;4428;-60
2023/07/29 00:46:34;;;;;;;3.17;2.07;;;;;;;17.36;100.00;99910.06;676847;29;1434;-60
2023/07/29 00:46:55;;;;;;;3.33;2.00;;;;;;;17.35;100.00;99911.00;674777;29;2275;-60
2023/07/29 00:47:16;;;;;;;2.87;1.90;;;;;;;17.36;100.00;99910.06;674895;29;1472;-58
2023/07/29 00:47:37;;;;;;;3.13;2.05;;;;;;;17.36;100.00;99920.63;670960;29;1419;-59
2023/07/29 00:47:59;;;;;;;3.53;2.22;;;;;;;17.38;100.00;99914.41;667398;29;1324;-60
2023/07/29 00:48:20;;;;;;;3.40;2.20;;;;;;;17.36;100.00;99910.06;671623;29;1417;-59
2023/07/29 00:48:40;;;;;;;3.92;2.10;;;;;;;17.36;100.00;99920.63;671557;29;1551;-60
2023/07/29 00:49:01;;;;;;;4.20;2.20;;;;;;;17.36;100.00;99910.06;669932;29;2334;-60
2023/07/29 00:49:22;;;;;;;4.17;2.20;;;;;;;17.36;100.00;99911.84;671983;29;4432;-60
2023/07/29 00:49:45;;;;;;;3.80;2.00;;;;;;;17.35;100.00;99911.00;674195;29;1212;-58
2023/07/29 00:50:07;;;;;;;3.90;2.20;;;;;;;17.34;100.00;99919.84;675236;29;1747;-60
2023/07/29 00:50:28;;;;;;;3.45;2.20;;;;;;;17.34;100.00;99906.63;675176;29;1232;-60
2023/07/29 00:50:49;;;;;;;5.00;2.10;;;;;;;17.35;100.00;99920.72;677266;28;1321;-60
2023/07/29 00:51:10;;;;;;;4.45;1.98;;;;;;;17.34;100.00;99921.63;677603;29;1600;-60
2023/07/29 00:51:30;;;;;;;3.67;1.90;;;;;;;17.34;100.00;99917.19;680412;29;1285;-60
2023/07/29 00:51:51;;;;;;;4.03;1.90;;;;;;;17.34;100.00;99917.19;682102;29;1287;-60
2023/07/29 00:52:12;;;;;;;4.83;1.90;;;;;;;17.33;100.00;99907.59;678838;29;4824;-60
2023/07/29 00:52:33;;;;;;;4.75;1.98;;;;;;;17.32;100.00;99916.41;676925;29;1296;-60
2023/07/29 00:52:54;;;;;;;4.63;2.08;;;;;;;17.31;100.00;99914.69;676196;29;2258;-60
2023/07/29 00:53:17;;;;;;;3.90;2.20;;;;;;;17.33;100.00;99904.94;676824;29;1292;-59
2023/07/29 00:53:37;;;;;;;3.05;2.00;;;;;;;17.34;100.00;99911.06;677366;29;1224;-60
2023/07/29 00:53:58;;;;;;;3.53;1.93;;;;;;;17.33;100.00;99915.50;676492;29;1673;-60
2023/07/29 00:54:18;;;;;;;3.00;1.98;;;;;;;17.33;100.00;99904.94;677462;29;1382;-60
2023/07/29 00:54:40;;;;;;;8.30;2.77;;;;;;;17.33;100.00;99906.69;676340;29;1394;-60
2023/07/29 00:55:01;;;;;;;9.63;2.80;;;;;;;17.38;100.00;99907.38;676111;29;2507;-59
2023/07/29 00:55:21;;;;;;;3.60;2.08;;;;;;;17.40;100.00;99904.66;674258;29;4502;-60
2023/07/29 00:55:45;;;;;;;3.17;2.00;;;;;;;17.40;100.00;99904.66;676108;29;1392;-60
2023/07/29 00:56:06;;;;;;;3.67;2.03;;;;;;;17.38;100.00;99907.38;675666;29;1495;-60
2023/07/29 00:56:26;;;;;;;3.80;2.10;;;;;;;17.36;100.00;99904.78;675049;29;1233;-59
2023/07/29 00:56:46;;;;;;;3.47;2.05;;;;;;;17.36;100.00;99902.16;676059;29;1273;-59
2023/07/29 00:57:09;;;;;;;3.90;2.10;;;;;;;17.34;100.00;99906.63;674081;29;2332;-60
2023/07/29 00:57:30;;;;;;;3.95;2.20;;;;;;;17.35;100.00;99900.44;675815;29;1231;-60
2023/07/29 00:57:54;;;;;;;5.07;2.10;;;;;;;17.36;100.00;99911.84;674863;29;1151;-60
2023/07/29 00:58:14;;;;;;;6.03;2.00;;;;;;;17.34;100.00;99906.63;675047;29;4508;-60
2023/07/29 00:58:34;;;;;;;4.37;2.20;;;;;;;17.33;100.00;99907.59;677005;29;1381;-59
2023/07/29 00:58:58;;;;;;;3.63;2.10;;;;;;;17.34;100.00;99911.91;675945;29;2377;-60
2023/07/29 00:59:19;;;;;;;3.47;2.05;;;;;;;17.32;100.00;99903.22;674789;29;1297;-60
2023/07/29 00:59:40;;;;;;;4.38;2.08;;;;;;;17.33;100.00;99906.69;676507;29;1171;-60
2023/07/29 01:00:00;;;;;;;3.85;2.08;;;;;;;17.31;100.00;99912.06;673208;29;1607;-60
2023/07/29 01:00:22;;;;;;;3.70;2.10;;;;;;;17.32;100.00;99912.91;672811;29;2615;-60
2023/07/29 01:00:42;;;;;;;3.67;2.10;;;;;;;17.31;100.00;99912.06;675196;29;1256;-60
2023/07/29 01:01:03;;;;;;;3.80;2.10;;;;;;;17.32;100.00;99912.91;674526;29;1166;-60
2023/07/29 01:01:23;;;;;;;4.45;2.00;;;;;;;17.32;100.00;99913.78;677477;29;4463;-59
2023/07/29 01:01:44;;;;;;;3.60;2.20;;;;;;;17.33;100.00;99914.63;678044;29;1237;-60
2023/07/29 01:02:04;;;;;;;3.17;2.15;;;;;;;17.43;100.00;99915.94;675753;29;2138;-60
2023/07/29 01:02:26;;;;;;;3.70;2.15;;;;;;;17.42;100.00;99905.41;674592;29;1348;-60
2023/07/29 01:02:47;;;;;;;3.67;2.13;;;;;;;17.42;100.00;99913.34;671816;29;1354;-60
2023/07/29 01:03:08;;;;;;;3.40;1.95;;;;;;;17.41;100.00;99909.84;673420;29;1913;-60
2023/07/29 01:03:28;;;;;;;4.38;2.50;;;;;;;17.40;100.00;99909.94;672073;29;1253;-60
2023/07/29 01:03:49;;;;;;;2.97;2.00;;;;;;;17.39;100.00;99906.44;671757;29;1274;-60
2023/07/29 01:04:09;;;;;;;3.58;2.22;;;;;;;17.41;100.00;99909.00;672982;29;4434;-60
2023/07/29 01:04:29;;;;;;;3.70;2.40;;;;;;;17.45;100.00;99913.22;674608;29;1487;-60
2023/07/29 01:04:55;;;;;;;3.50;2.10;;;;;;;17.43;100.00;99905.38;677143;29;1256;-58
2023/07/29 01:05:17;;;;;;;3.90;2.00;;;;;;;17.43;100.00;99904.50;676189;29;1407;-59
2023/07/29 01:05:57;;;;;;;3.35;2.10;;;;;;;17.43;100.00;99910.66;677423;29;1507;-60
2023/07/29 01:06:29;;;;;;;4.78;2.22;;;;;;;17.44;100.00;99900.94;675910;29;1267;-60
2023/07/29 01:06:49;;;;;;;3.45;2.20;;;;;;;17.51;100.00;99897.97;673791;29;1292;-59
2023/07/29 01:07:46;;;;;;;4.65;2.00;;;;;;;17.43;100.00;99894.81;674401;29;4429;-60
2023/07/29 01:08:24;;;;;;;3.67;2.20;;;;;;;17.40;100.00;99900.22;675390;29;1479;-59
2023/07/29 01:09:02;;;;;;;2.90;2.00;;;;;;;17.46;100.00;99904.34;677936;29;1264;-60
2023/07/29 01:09:40;;;;;;;3.35;2.10;;;;;;;17.44;100.00;99904.44;679116;29;1180;-60
2023/07/29 01:10:16;;;;;;;3.47;2.10;;;;;;;17.43;100.00;99901.84;676790;29;2044;-59
2023/07/29 01:10:58;;;;;;;4.00;2.10;;;;;;;17.48;100.00;99895.44;677242;29;6508;-59
2023/07/29 01:11:40;;;;;;;3.17;2.00;;;;;;;17.47;100.00;99896.38;676132;29;1277;-60
2023/07/29 01:12:02;;;;;;;2.97;2.03;;;;;;;17.47;100.00;99892.88;675155;29;2142;-58
2023/07/29 01:12:49;;;;;;;3.05;2.08;;;;;;;17.44;100.00;99893.00;675222;29;1229;-60
2023/07/29 01:13:15;;;;;;;3.58;2.00;;;;;;;17.42;100.00;99895.72;674928;29;4565;-59
2023/07/29 01:13:46;;;;;;;3.55;2.20;;;;;;;17.42;100.00;99897.50;675069;29;1377;-60
2023/07/29 01:14:31;;;;;;;3.13;2.15;;;;;;;17.49;100.00;99896.31;677812;29;1446;-60
2023/07/29 01:14:52;;;;;;;3.65;2.30;;;;;;;17.44;100.00;99887.72;678990;29;1442;-59
2023/07/29 01:15:29;;;;;;;3.45;2.28;;;;;;;17.50;100.00;99895.34;675908;29;2300;-60
2023/07/29 01:16:17;;;;;;;3.53;2.20;;;;;;;17.49;100.00;99886.59;679270;29;1288;-59
2023/07/29 01:16:43;;;;;;;5.90;2.42;;;;;;;17.53;100.00;99890.81;678838;29;6383;-59
2023/07/29 01:17:09;;;;;;;3.40;2.53;;;;;;;17.50;100.00;99885.66;679284;29;1469;-59
2023/07/29 01:17:53;;;;;;;4.25;2.15;;;;;;;17.45;100.00;99894.72;678201;29;1330;-59
2023/07/29 01:18:20;;;;;;;3.80;2.00;;;;;;;17.44;100.00;99885.94;676791;29;1039;-61
2023/07/29 01:18:42;;;;;;;4.13;2.50;;;;;;;17.42;100.00;99890.44;675033;29;1672;-60
2023/07/29 01:19:07;;;;;;;4.18;2.47;;;;;;;17.38;100.00;99888.88;674305;29;1912;-59
2023/07/29 01:19:56;;;;;;;3.65;2.22;;;;;;;17.35;100.00;99886.38;675135;29;4377;-59
2023/07/29 01:20:20;;;;;;;3.33;2.20;;;;;;;17.40;100.00;99886.16;677152;29;1353;-59
2023/07/29 01:20:43;;;;;;;3.22;2.20;;;;;;;17.39;100.00;99887.06;678773;29;1366;-60
2023/07/29 01:21:08;;;;;;;4.20;2.28;;;;;;;17.38;100.00;99883.59;677824;29;1515;-60
2023/07/29 01:21:29;;;;;;;3.65;2.10;;;;;;;17.36;100.00;99888.94;678855;29;2099;-60
2023/07/29 01:21:50;;;;;;;4.00;2.30;;;;;;;17.33;100.00;99891.72;678402;29;1268;-60
2023/07/29 01:22:13;;;;;;;3.95;2.30;;;;;;;17.33;100.00;99893.50;676865;29;4467;-59
2023/07/29 01:22:35;;;;;;;3.75;2.50;;;;;;;17.32;100.00;99890.00;675875;29;1407;-59
2023/07/29 01:22:57;;;;;;;3.20;2.40;;;;;;;17.31;100.00;99883.00;673913;29;1624;-59
2023/07/29 01:23:28;;;;;;;3.55;2.30;;;;;;;17.30;100.00;99878.63;676883;29;2002;-59
2023/07/29 01:23:53;;;;;;;3.38;2.30;;;;;;;17.30;100.00;99878.63;675677;29;1398;-60
2023/07/29 01:24:13;;;;;;;3.97;2.40;;;;;;;17.30;100.00;99883.91;676329;29;1213;-59
2023/07/29 01:24:34;;;;;;;4.25;2.30;;;;;;;17.29;100.00;99884.88;679782;29;1521;-60
2023/07/29 01:24:54;;;;;;;4.33;2.47;;;;;;;17.31;100.00;99883.00;677506;29;2331;-60
2023/07/29 01:25:14;;;;;;;3.80;2.60;;;;;;;17.30;100.00;99885.72;679262;28;5498;-60
2023/07/29 01:25:35;;;;;;;3.63;2.40;;;;;;;17.29;100.00;99887.50;680779;29;1280;-59
2023/07/29 01:25:55;;;;;;;3.70;2.50;;;;;;;17.29;100.00;99882.22;679594;28;2625;-60
2023/07/29 01:26:15;;;;;;;4.30;2.40;;;;;;;17.31;100.00;99885.63;681600;28;1252;-59
2023/07/29 01:26:36;;;;;;;3.67;2.40;;;;;;;17.31;100.00;99880.34;678353;29;1293;-59
2023/07/29 01:26:57;;;;;;;5.10;2.40;;;;;;;17.31;100.00;99879.50;674637;29;1507;-59
2023/07/29 01:27:17;;;;;;;4.20;2.45;;;;;;;17.31;100.00;99883.00;673416;29;1436;-60
2023/07/29 01:27:38;;;;;;;4.50;2.50;;;;;;;17.31;100.00;99883.00;673759;29;1419;-59
2023/07/29 01:27:58;;;;;;;4.63;2.30;;;;;;;17.36;100.00;99881.00;671233;29;2410;-59
2023/07/29 01:28:19;;;;;;;4.87;2.50;;;;;;;17.37;100.00;99876.56;673744;29;5285;-59
2023/07/29 01:28:39;;;;;;;3.88;2.33;;;;;;;17.35;100.00;99883.72;677237;29;1039;-60
2023/07/29 01:29:00;;;;;;;3.87;2.10;;;;;;;17.35;100.00;99881.09;673128;29;2240;-60
2023/07/29 01:29:20;;;;;;;3.22;2.20;;;;;;;17.32;100.00;99884.72;676923;29;1459;-59
2023/07/29 01:29:41;;;;;;;3.60;2.30;;;;;;;17.32;100.00;99881.22;677271;29;1404;-59
2023/07/29 01:30:03;;;;;;;3.50;2.23;;;;;;;17.30;100.00;99878.63;677960;29;2685;-59
2023/07/29 01:30:40;;;;;;;3.90;2.42;;;;;;;17.29;100.00;99881.34;677758;29;1300;-59
2023/07/29 01:31:43;;;;;;;3.83;2.45;;;;;;;17.25;100.00;99874.50;675609;29;2003;-59
2023/07/29 01:32:42;;;;;;;3.28;2.25;;;;;;;17.24;100.00;99878.06;677045;29;4982;-59
2023/07/29 01:33:18;;;;;;;4.70;2.60;;;;;;;17.24;100.00;99875.41;674005;29;2149;-59
2023/07/29 01:34:17;;;;;;;3.30;2.30;;;;;;;17.23;100.00;99877.19;672162;29;1416;-58
2023/07/29 01:35:03;;;;;;;4.75;2.47;;;;;;;17.28;100.00;99882.28;669035;29;1330;-59
2023/07/29 01:35:44;;;;;;;3.85;2.35;;;;;;;17.25;100.00;99877.13;669208;29;1344;-59
2023/07/29 01:36:13;;;;;;;5.57;2.45;;;;;;;17.24;100.00;99873.66;670627;29;1569;-60
2023/07/29 01:36:40;;;;;;;3.80;2.50;;;;;;;17.22;100.00;99874.63;673457;29;1562;-59
2023/07/29 01:37:05;;;;;;;3.83;2.33;;;;;;;17.22;100.00;99875.47;673353;29;2228;-59
2023/07/29 01:37:29;;;;;;;4.30;2.53;;;;;;;17.21;100.00;99873.78;674621;29;4524;-59
2023/07/29 01:37:54;;;;;;;3.88;2.30;;;;;;;17.20;100.00;99877.34;674472;29;1021;-59
2023/07/29 01:38:20;;;;;;;3.63;2.28;;;;;;;17.22;100.00;99877.28;677005;29;1142;-59
2023/07/29 01:38:44;;;;;;;4.05;2.10;;;;;;;17.21;100.00;99879.06;676500;29;2344;-60
2023/07/29 01:39:04;;;;;;;3.15;2.20;;;;;;;17.20;100.00;99882.63;673520;29;2055;-60
2023/07/29 01:39:27;;;;;;;3.35;2.20;;;;;;;17.18;100.00;99882.72;676697;29;1311;-60
2023/07/29 01:39:50;;;;;;;4.22;2.40;;;;;;;17.19;100.00;99883.53;674189;29;1044;-60
2023/07/29 01:40:11;;;;;;;3.80;2.20;;;;;;;17.19;100.00;99886.19;673353;29;4416;-59
2023/07/29 01:40:31;;;;;;;4.40;2.30;;;;;;;17.19;100.00;99891.47;678088;29;1465;-58
2023/07/29 01:40:53;;;;;;;3.63;2.40;;;;;;;17.18;100.00;99885.34;680052;29;1279;-59
2023/07/29 01:41:14;;;;;;;3.83;2.40;;;;;;;17.17;100.00;99882.78;678810;29;1691;-58
2023/07/29 01:41:35;;;;;;;3.65;2.40;;;;;;;17.18;100.00;99895.03;680070;29;1319;-60
2023/07/29 01:41:56;;;;;;;3.72;2.53;;;;;;;17.18;100.00;99884.47;680489;28;1759;-60
2023/07/29 01:42:17;;;;;;;3.80;2.38;;;;;;;17.19;100.00;99883.53;681655;28;5344;-59
2023/07/29 01:42:38;;;;;;;4.75;2.38;;;;;;;17.19;100.00;99883.53;681530;28;1311;-60
2023/07/29 01:42:59;;;;;;;4.80;2.35;;;;;;;17.22;100.00;99877.28;680515;28;1853;-60
2023/07/29 01:43:23;;;;;;;5.97;2.60;;;;;;;17.23;100.00;99887.78;681250;29;4412;-60
2023/07/29 01:43:44;;;;;;;4.90;2.40;;;;;;;17.24;100.00;99886.84;681348;28;1215;-59
2023/07/29 01:44:06;;;;;;;3.53;2.40;;;;;;;17.23;100.00;99881.63;680707;29;2025;-60
2023/07/29 01:44:27;;;;;;;3.40;2.30;;;;;;;17.22;100.00;99874.63;680260;29;1253;-60
2023/07/29 01:44:47;;;;;;;4.05;2.40;;;;;;;17.21;100.00;99880.84;677739;29;1229;-60
2023/07/29 01:45:08;;;;;;;4.63;2.30;;;;;;;17.20;100.00;99882.63;678152;29;1799;-59
2023/07/29 01:45:31;;;;;;;4.15;2.45;;;;;;;17.18;100.00;99881.81;676264;29;1260;-59
2023/07/29 01:45:51;;;;;;;3.92;2.50;;;;;;;17.17;100.00;99882.78;679044;29;818;-59
2023/07/29 01:46:13;;;;;;;3.97;2.43;;;;;;;17.17;100.00;99880.13;676726;29;5157;-60
2023/07/29 01:46:34;;;;;;;3.55;2.08;;;;;;;17.17;100.00;99885.41;677099;29;1510;-60
2023/07/29 01:46:57;;;;;;;3.22;2.28;;;;;;;17.16;100.00;99887.19;672633;29;2348;-60
2023/07/29 01:47:17;;;;;;;3.45;2.50;;;;;;;17.16;100.00;99886.34;675836;29;1319;-59
2023/07/29 01:47:40;;;;;;;4.37;2.60;;;;;;;17.15;100.00;99885.44;674592;29;1407;-58
2023/07/29 01:48:00;;;;;;;4.40;2.50;;;;;;;17.14;100.00;99886.41;673102;29;1715;-60
2023/07/29 01:48:21;;;;;;;3.90;2.57;;;;;;;17.14;100.00;99893.44;674606;29;1536;-60
2023/07/29 01:48:43;;;;;;;4.50;2.80;;;;;;;17.13;100.00;99886.47;674012;29;1435;-60
2023/07/29 01:49:03;;;;;;;4.10;2.60;;;;;;;17.14;100.00;99889.03;675335;29;1689;-60
2023/07/29 01:49:25;;;;;;;3.78;2.67;;;;;;;17.15;100.00;99884.63;674295;29;4513;-59
2023/07/29 01:49:45;;;;;;;6.07;2.47;;;;;;;17.16;100.00;99888.97;677360;29;1272;-60
2023/07/29 01:50:09;;;;;;;4.93;2.42;;;;;;;17.16;100.00;99896.91;672465;29;1892;-59